createdAt,value
2023-01-28T00:01:45.179Z,3.65
2023-01-28T00:04:11.993Z,3.17
2023-01-28T00:06:38.816Z,1.80
2023-01-28T00:09:05.555Z,3.60
2023-01-28T00:11:32.313Z,2.30
2023-01-28T00:13:59.510Z,2.08
2023-01-28T00:16:27.499Z,2.20
2023-01-28T00:18:54.782Z,3.20
2023-01-28T00:21:21.596Z,2.65
2023-01-28T00:23:52.684Z,4.70
2023-01-28T00:26:19.651Z,2.42
2023-01-28T00:28:46.720Z,3.10
2023-01-28T00:31:22.096Z,2.33
2023-01-28T00:33:51.218Z,2.92
2023-01-28T00:36:19.852Z,3.30
2023-01-28T00:39:05.720Z,2.97
2023-01-28T00:41:32.787Z,3.80
2023-01-28T00:43:59.687Z,2.20
2023-01-28T00:46:26.600Z,2.95
2023-01-28T00:48:53.450Z,2.20
2023-01-28T00:51:20.318Z,3.00
2023-01-28T00:53:47.486Z,2.97
2023-01-28T00:56:17.155Z,3.72
2023-01-28T00:58:44.291Z,4.70
2023-01-28T01:01:17.500Z,2.83
2023-01-28T01:03:44.776Z,2.72
2023-01-28T01:09:00.407Z,2.60
2023-01-28T01:11:27.263Z,3.78
2023-01-28T01:13:55.875Z,1.85
2023-01-28T01:16:24.515Z,4.80
2023-01-28T01:21:39.299Z,2.90
2023-01-28T01:24:06.411Z,5.32
2023-01-28T01:26:33.196Z,2.90
2023-01-28T01:29:00.021Z,2.25
2023-01-28T01:31:26.852Z,2.50
2023-01-28T01:33:53.700Z,2.47
2023-01-28T01:36:20.991Z,2.50
2023-01-28T01:38:48.283Z,2.90
2023-01-28T01:41:31.740Z,3.70
2023-01-28T01:44:01.203Z,3.45
2023-01-28T01:46:50.885Z,3.22
2023-01-28T01:52:27.977Z,3.40
2023-01-28T01:54:57.548Z,1.90
2023-01-28T01:57:29.768Z,2.40
2023-01-28T02:02:24.565Z,2.13
2023-01-28T02:04:51.496Z,3.17
2023-01-28T02:07:19.646Z,2.60
2023-01-28T02:09:46.466Z,2.70
2023-01-28T02:12:18.876Z,2.10
2023-01-28T02:14:56.914Z,2.70
2023-01-28T02:17:24.434Z,3.00
2023-01-28T02:19:55.169Z,2.20
2023-01-28T02:22:54.664Z,3.50
2023-01-28T02:25:39.544Z,2.70
2023-01-28T02:28:44.606Z,2.43
2023-01-28T02:31:32.329Z,3.65
2023-01-28T02:34:10.457Z,2.80
2023-01-28T02:36:48.822Z,3.20
2023-01-28T02:39:34.189Z,3.92
2023-01-28T02:44:58.639Z,2.45
2023-01-28T02:47:25.504Z,2.88
2023-01-28T02:49:54.924Z,2.17
2023-01-28T02:56:03.035Z,2.80
2023-01-28T02:58:29.727Z,1.83
2023-01-28T03:01:17.537Z,1.80
2023-01-28T03:04:07.036Z,2.60
2023-01-28T03:06:50.723Z,2.23
2023-01-28T03:09:19.597Z,3.80
2023-01-28T03:12:06.006Z,2.50
2023-01-28T03:14:35.210Z,5.10
2023-01-28T03:17:03.372Z,3.70
2023-01-28T03:19:30.816Z,2.80
2023-01-28T03:21:58.359Z,2.20
2023-01-28T03:24:31.757Z,2.20
2023-01-28T03:27:02.689Z,2.70
2023-01-28T03:29:31.862Z,2.00
2023-01-28T03:32:00.520Z,3.65
2023-01-28T03:34:28.013Z,2.25
2023-01-28T03:36:55.919Z,2.40
2023-01-28T03:39:28.675Z,3.00
2023-01-28T03:42:01.001Z,3.17
2023-01-28T03:44:28.190Z,2.25
2023-01-28T03:46:54.976Z,2.30
2023-01-28T03:49:21.748Z,2.70
2023-01-28T03:54:35.201Z,3.35
2023-01-28T03:59:48.780Z,3.00
2023-01-28T04:05:03.413Z,1.67
2023-01-28T04:07:30.147Z,3.13
2023-01-28T04:09:56.960Z,3.05
2023-01-28T04:12:23.714Z,4.30
2023-01-28T04:14:50.518Z,2.27
2023-01-28T04:17:17.279Z,3.78
2023-01-28T04:19:44.045Z,2.65
2023-01-28T04:22:11.441Z,1.90
2023-01-28T04:24:38.213Z,3.60
2023-01-28T04:27:04.960Z,2.03
2023-01-28T04:29:31.713Z,2.30
2023-01-28T04:31:58.484Z,2.10
2023-01-28T04:34:25.295Z,4.90
2023-01-28T04:36:52.039Z,3.65
2023-01-28T04:39:18.778Z,2.28
2023-01-28T04:41:45.558Z,2.90
2023-01-28T04:44:12.360Z,2.70
2023-01-28T04:46:39.163Z,2.38
2023-01-28T04:49:05.968Z,2.50
2023-01-28T04:51:32.706Z,1.95
2023-01-28T04:53:59.483Z,1.95
2023-01-28T04:56:26.284Z,2.92
2023-01-28T04:58:53.086Z,3.83
2023-01-28T05:04:06.499Z,2.63
2023-01-28T05:09:20.238Z,4.03
2023-01-28T05:11:46.979Z,4.32
2023-01-28T05:14:13.705Z,2.25
2023-01-28T05:16:40.527Z,2.95
2023-01-28T05:19:07.416Z,2.80
2023-01-28T05:21:34.215Z,3.97
2023-01-28T05:24:01.021Z,2.17
2023-01-28T05:26:27.864Z,3.00
2023-01-28T05:28:54.634Z,2.85
2023-01-28T05:31:21.438Z,3.10
2023-01-28T05:33:48.485Z,2.60
2023-01-28T05:36:15.274Z,3.80
2023-01-28T05:38:42.049Z,3.20
2023-01-28T05:41:08.910Z,4.78
2023-01-28T05:46:22.384Z,3.42
2023-01-28T05:48:49.137Z,2.50
2023-01-28T05:51:15.925Z,2.55
2023-01-28T05:53:42.808Z,3.28
2023-01-28T05:56:09.595Z,2.70
2023-01-28T05:58:36.381Z,3.88
2023-01-28T06:01:03.395Z,3.40
2023-01-28T06:03:30.176Z,3.10
2023-01-28T06:05:56.933Z,16.27
2023-01-28T06:08:23.721Z,3.53
2023-01-28T06:10:50.453Z,2.92
2023-01-28T06:13:17.215Z,2.63
2023-01-28T06:15:44.023Z,2.50
2023-01-28T06:18:10.829Z,1.95
2023-01-28T06:20:37.615Z,2.03
2023-01-28T06:23:04.412Z,3.65
2023-01-28T06:25:31.190Z,2.92
2023-01-28T06:30:44.639Z,2.22
2023-01-28T06:35:58.260Z,2.90
2023-01-28T06:41:15.351Z,3.20
2023-01-28T06:46:28.961Z,4.03
2023-01-28T06:48:55.750Z,2.65
2023-01-28T06:51:22.523Z,1.80
2023-01-28T06:53:49.261Z,4.70
2023-01-28T06:56:16.022Z,2.35
2023-01-28T06:58:42.829Z,23.93
2023-01-28T07:01:09.564Z,7.65
2023-01-28T07:03:36.966Z,4.63
2023-01-28T07:06:03.945Z,3.03
2023-01-28T07:08:30.758Z,2.90
2023-01-28T07:10:57.594Z,2.22
2023-01-28T07:13:24.339Z,2.60
2023-01-28T07:15:51.160Z,2.78
2023-01-28T07:18:17.936Z,2.47
2023-01-28T07:20:45.356Z,14.00
2023-01-28T07:23:12.139Z,11.82
2023-01-28T07:25:38.922Z,12.00
2023-01-28T07:28:06.192Z,3.75
2023-01-28T07:30:32.986Z,3.40
2023-01-28T07:33:00.237Z,4.55
2023-01-28T07:38:14.370Z,3.75
2023-01-28T07:43:08.956Z,2.72
2023-01-28T07:45:36.103Z,4.20
2023-01-28T07:50:52.819Z,4.63
2023-01-28T07:56:06.809Z,4.43
2023-01-28T07:58:33.652Z,2.10
2023-01-28T08:01:01.380Z,6.05
2023-01-28T08:03:28.920Z,3.55
2023-01-28T08:05:56.555Z,10.80
2023-01-28T08:08:24.482Z,5.20
2023-01-28T08:10:51.511Z,10.07
2023-01-28T08:13:19.792Z,9.50
2023-01-28T08:15:47.597Z,4.85
2023-01-28T08:18:16.114Z,4.55
2023-01-28T08:20:43.677Z,6.30
2023-01-28T08:23:18.738Z,8.63
2023-01-28T08:25:46.546Z,7.90
2023-01-28T08:31:02.551Z,11.68
2023-01-28T08:33:29.680Z,8.95
2023-01-28T08:35:56.450Z,10.40
2023-01-28T08:38:23.227Z,7.35
2023-01-28T08:40:50.039Z,7.30
2023-01-28T08:43:17.035Z,9.05
2023-01-28T08:45:43.793Z,9.55
2023-01-28T08:48:14.608Z,8.07
2023-01-28T08:50:41.572Z,7.88
2023-01-28T08:53:15.352Z,8.87
2023-01-28T08:58:29.012Z,9.10
2023-01-28T09:00:55.836Z,6.75
2023-01-28T09:03:22.659Z,7.83
2023-01-28T09:04:10.853Z,0
2023-01-28T09:05:49.585Z,8.50
2023-01-28T09:08:16.644Z,7.10
2023-01-28T09:10:43.910Z,8.38
2023-01-28T09:13:13.984Z,9.65
2023-01-28T09:15:41.233Z,8.90
2023-01-28T09:18:08.042Z,9.73
2023-01-28T09:20:35.274Z,8.55
2023-01-28T09:23:02.545Z,11.60
2023-01-28T09:25:29.545Z,10.33
2023-01-28T09:27:57.142Z,9.57
2023-01-28T09:30:23.997Z,8.00
2023-01-28T09:30:40.758Z,0
2023-01-28T09:35:38.693Z,11.53
2023-01-28T09:40:52.451Z,9.07
2023-01-28T09:43:37.942Z,8.82
2023-01-28T09:46:06.592Z,8.63
2023-01-28T09:51:34.341Z,9.60
2023-01-28T09:54:08.083Z,9.70
2023-01-28T09:56:40.304Z,8.80
2023-01-28T09:59:21.072Z,9.55
2023-01-28T10:01:59.967Z,9.13
2023-01-28T10:04:46.923Z,8.43
2023-01-28T10:07:13.622Z,8.15
2023-01-28T10:09:52.670Z,8.93
2023-01-28T10:12:40.854Z,9.82
2023-01-28T10:15:26.172Z,10.90
2023-01-28T10:18:16.137Z,8.63
2023-01-28T10:20:54.334Z,9.65
2023-01-28T10:23:31.463Z,8.40
2023-01-28T10:26:00.262Z,8.77
2023-01-28T10:28:31.015Z,8.50
2023-01-28T10:30:57.826Z,8.52
2023-01-28T10:33:37.906Z,6.90
2023-01-28T10:36:05.132Z,7.47
2023-01-28T10:38:32.335Z,7.10
2023-01-28T10:41:02.196Z,5.53
2023-01-28T10:43:35.826Z,9.85
2023-01-28T10:46:17.362Z,6.03
2023-01-28T10:49:18.607Z,8.43
2023-01-28T10:51:45.393Z,6.60
2023-01-28T10:54:29.092Z,6.40
2023-01-28T10:57:10.988Z,6.45
2023-01-28T10:59:38.068Z,6.10
2023-01-28T11:02:19.947Z,8.77
2023-01-28T11:07:34.012Z,6.80
2023-01-28T11:10:00.788Z,5.90
2023-01-28T11:12:30.787Z,9.85
2023-01-28T11:15:02.438Z,7.90
2023-01-28T11:20:24.204Z,8.02
2023-01-28T11:25:38.403Z,7.20
2023-01-28T11:28:23.540Z,7.32
2023-01-28T11:30:53.974Z,7.68
2023-01-28T11:33:44.355Z,6.70
2023-01-28T11:36:23.297Z,6.40
2023-01-28T11:38:58.932Z,6.37
2023-01-28T11:41:35.380Z,5.07
2023-01-28T11:44:20.414Z,6.43
2023-01-28T11:46:59.009Z,4.77
2023-01-28T11:49:42.159Z,5.30
2023-01-28T11:52:55.239Z,5.35
2023-01-28T11:55:22.142Z,5.30
2023-01-28T11:58:00.809Z,8.00
2023-01-28T12:00:30.336Z,7.82
2023-01-28T12:03:00.169Z,7.50
2023-01-28T12:05:29.894Z,5.13
2023-01-28T12:08:17.968Z,6.13
2023-01-28T12:11:12.076Z,4.63
2023-01-28T12:13:47.397Z,5.57
2023-01-28T12:16:35.454Z,7.45
2023-01-28T12:19:05.219Z,4.50
2023-01-28T12:24:46.989Z,5.50
2023-01-28T12:27:34.849Z,6.75
2023-01-28T12:30:01.546Z,5.88
2023-01-28T12:32:55.570Z,5.93
2023-01-28T12:35:39.815Z,6.57
2023-01-28T12:38:15.910Z,5.82
2023-01-28T12:40:45.670Z,6.20
2023-01-28T12:43:33.647Z,5.27
2023-01-28T12:46:11.184Z,4.40
2023-01-28T12:48:43.605Z,5.00
2023-01-28T12:51:24.632Z,5.07
2023-01-28T12:54:12.287Z,4.70
2023-01-28T12:59:45.976Z,5.00
2023-01-28T13:02:12.764Z,5.47
2023-01-28T13:05:00.025Z,5.80
2023-01-28T13:07:39.878Z,4.35
2023-01-28T13:10:14.886Z,4.30
2023-01-28T13:12:42.712Z,4.38
2023-01-28T13:15:15.547Z,5.63
2023-01-28T13:17:58.094Z,6.82
2023-01-28T13:20:30.957Z,5.40
2023-01-28T13:23:02.462Z,5.53
2023-01-28T13:25:29.627Z,7.10
2023-01-28T13:28:04.810Z,6.57
2023-01-28T13:33:02.745Z,6.18
2023-01-28T13:35:36.995Z,5.13
2023-01-28T13:38:19.407Z,5.75
2023-01-28T13:40:57.674Z,5.60
2023-01-28T13:43:27.165Z,6.40
2023-01-28T13:46:02.509Z,6.10
2023-01-28T13:48:41.226Z,5.60
2023-01-28T13:51:32.885Z,5.70
2023-01-28T13:54:05.217Z,6.00
2023-01-28T13:56:58.263Z,4.97
2023-01-28T13:59:49.407Z,5.18
2023-01-28T14:02:26.977Z,4.97
2023-01-28T14:14:55.317Z,5.20
2023-01-28T14:17:40.594Z,5.87
2023-01-28T14:23:17.710Z,6.07
2023-01-28T14:26:08.556Z,6.80
2023-01-28T14:28:58.692Z,7.10
2023-01-28T14:31:32.262Z,5.45
2023-01-28T14:34:24.620Z,6.47
2023-01-28T14:36:53.426Z,6.28
2023-01-28T14:41:53.650Z,6.70
2023-01-28T14:47:45.977Z,6.20
2023-01-28T14:50:30.356Z,6.90
2023-01-28T14:53:22.575Z,6.25
2023-01-28T14:56:24.614Z,5.78
2023-01-28T14:58:57.262Z,6.70
2023-01-28T15:01:29.816Z,10.47
2023-01-28T15:03:56.900Z,13.55
2023-01-28T15:06:35.731Z,10.32
2023-01-28T15:09:13.600Z,6.18
2023-01-28T15:11:43.084Z,7.32
2023-01-28T15:14:25.790Z,7.85
2023-01-28T15:16:53.181Z,6.53
2023-01-28T15:22:27.435Z,10.70
2023-01-28T15:27:42.559Z,12.40
2023-01-28T15:30:20.311Z,8.13
2023-01-28T15:33:11.490Z,6.72
2023-01-28T15:35:38.353Z,6.13
2023-01-28T15:38:05.620Z,5.45
2023-01-28T15:43:38.268Z,5.95
2023-01-28T15:46:11.911Z,5.85
2023-01-28T15:48:42.520Z,8.73
2023-01-28T15:54:09.840Z,8.40
2023-01-28T15:56:37.280Z,5.70
2023-01-28T15:59:15.801Z,8.10
2023-01-28T16:01:42.922Z,5.83
2023-01-28T16:04:29.917Z,6.53
2023-01-28T16:06:58.978Z,4.80
2023-01-28T16:09:31.426Z,6.20
2023-01-28T16:12:12.423Z,4.75
2023-01-28T16:15:01.251Z,6.03
2023-01-28T16:17:31.402Z,5.40
2023-01-28T16:20:02.383Z,15.13
2023-01-28T16:22:41.375Z,7.28
2023-01-28T16:25:30.251Z,7.70
2023-01-28T16:28:03.086Z,8.43
2023-01-28T16:30:30.106Z,7.93
2023-01-28T16:32:57.083Z,6.70
2023-01-28T16:35:56.555Z,6.20
2023-01-28T16:36:10.362Z,0
2023-01-28T16:41:11.463Z,5.72
2023-01-28T16:46:27.289Z,7.28
2023-01-28T16:51:20.737Z,5.70
2023-01-28T16:53:48.632Z,6.20
2023-01-28T16:56:30.720Z,7.22
2023-01-28T16:56:48.675Z,0
2023-01-28T17:01:50.354Z,6.53
2023-01-28T17:07:03.987Z,20.83
2023-01-28T17:09:30.928Z,6.25
2023-01-28T17:11:57.656Z,6.72
2023-01-28T17:14:24.600Z,5.87
2023-01-28T17:16:51.454Z,5.78
2023-01-28T17:19:18.754Z,5.30
2023-01-28T17:21:45.572Z,7.60
2023-01-28T17:24:12.346Z,6.97
2023-01-28T17:26:39.166Z,6.10
2023-01-28T17:29:06.732Z,6.90
2023-01-28T17:31:34.567Z,6.03
2023-01-28T17:36:48.333Z,7.00
2023-01-28T17:42:01.751Z,9.40
2023-01-28T17:47:15.186Z,7.80
2023-01-28T17:49:41.945Z,5.78
2023-01-28T17:52:08.795Z,6.25
2023-01-28T17:54:35.613Z,9.50
2023-01-28T17:57:02.388Z,14.10
2023-01-28T17:59:29.230Z,11.50
2023-01-28T18:01:56.010Z,7.50
2023-01-28T18:04:22.787Z,8.65
2023-01-28T18:06:49.512Z,8.00
2023-01-28T18:09:16.337Z,8.90
2023-01-28T18:11:43.188Z,7.60
2023-01-28T18:16:56.692Z,7.78
2023-01-28T18:22:10.210Z,8.70
2023-01-28T18:24:37.007Z,7.55
2023-01-28T18:27:03.840Z,8.30
2023-01-28T18:29:31.855Z,10.23
2023-01-28T18:31:58.846Z,8.32
2023-01-28T18:34:28.236Z,8.32
2023-01-28T18:36:55.457Z,9.20
2023-01-28T18:39:22.202Z,11.77
2023-01-28T18:41:51.979Z,9.75
2023-01-28T18:44:18.900Z,10.93
2023-01-28T18:49:32.374Z,9.77
2023-01-28T18:51:59.210Z,10.02
2023-01-28T18:54:16.755Z,0
2023-01-28T18:54:26.038Z,10.75
2023-01-28T18:56:52.774Z,12.90
2023-01-28T18:59:19.526Z,11.70
2023-01-28T19:04:33.011Z,11.55
2023-01-28T19:09:46.460Z,11.95
2023-01-28T19:14:59.957Z,19.77
2023-01-28T19:17:26.687Z,13.38
2023-01-28T19:19:53.461Z,13.57
2023-01-28T19:22:20.314Z,14.10
2023-01-28T19:24:47.038Z,13.00
2023-01-28T19:27:13.791Z,16.10
2023-01-28T19:29:40.548Z,14.38
2023-01-28T19:32:07.318Z,14.45
2023-01-28T19:34:34.111Z,16.17
2023-01-28T19:37:00.879Z,15.20
2023-01-28T19:39:27.639Z,15.60
2023-01-28T19:44:41.268Z,14.85
2023-01-28T19:49:54.837Z,19.85
2023-01-28T19:55:08.845Z,19.70
2023-01-28T19:57:35.613Z,16.95
2023-01-28T20:00:02.387Z,19.35
2023-01-28T20:02:29.201Z,20.80
2023-01-28T20:05:00.954Z,20.17
2023-01-28T20:07:28.360Z,19.55
2023-01-28T20:09:55.138Z,20.55
2023-01-28T20:12:21.951Z,22.52
2023-01-28T20:14:48.743Z,19.75
2023-01-28T20:17:15.583Z,19.70
2023-01-28T20:19:42.347Z,21.42
2023-01-28T20:22:09.144Z,19.27
2023-01-28T20:24:36.025Z,20.67
2023-01-28T20:27:02.856Z,20.10
2023-01-28T20:29:29.602Z,20.05
2023-01-28T20:32:13.716Z,21.67
2023-01-28T20:37:29.283Z,20.03
2023-01-28T20:42:42.825Z,20.73
2023-01-28T20:45:09.687Z,21.77
2023-01-28T20:47:36.449Z,22.83
2023-01-28T20:50:03.464Z,21.60
2023-01-28T20:52:30.251Z,21.58
2023-01-28T20:52:41.287Z,0
2023-01-28T20:54:57.005Z,20.70
2023-01-28T20:57:23.747Z,22.17
2023-01-28T20:59:50.507Z,21.95
2023-01-28T21:05:04.936Z,20.92
2023-01-28T21:10:18.975Z,21.20
2023-01-28T21:15:32.670Z,23.85
2023-01-28T21:20:46.312Z,22.67
2023-01-28T21:23:13.204Z,24.67
2023-01-28T21:25:40.581Z,24.77
2023-01-28T21:28:08.990Z,22.92
2023-01-28T21:30:35.760Z,23.15
2023-01-28T21:33:02.533Z,25.92
2023-01-28T21:35:29.307Z,24.98
2023-01-28T21:37:56.137Z,24.60
2023-01-28T21:40:22.975Z,25.02
2023-01-28T21:42:53.993Z,26.35
2023-01-28T21:45:20.889Z,27.10
2023-01-28T21:47:47.683Z,26.75
2023-01-28T21:50:14.945Z,27.77
2023-01-28T21:52:41.900Z,26.98
2023-01-28T21:55:09.082Z,26.40
2023-01-28T21:57:35.852Z,27.20
2023-01-28T22:00:02.631Z,30.63
2023-01-28T22:02:29.379Z,29.02
2023-01-28T22:04:56.176Z,28.75
2023-01-28T22:07:22.948Z,29.73
2023-01-28T22:09:49.734Z,29.65
2023-01-28T22:12:16.527Z,30.60
2023-01-28T22:14:43.359Z,32.70
2023-01-28T22:17:10.699Z,29.73
2023-01-28T22:19:38.603Z,31.55
2023-01-28T22:22:06.117Z,31.50
2023-01-28T22:24:33.024Z,31.45
2023-01-28T22:26:59.943Z,33.03
2023-01-28T22:29:26.966Z,33.40
2023-01-28T22:34:40.836Z,34.97
2023-01-28T22:39:56.162Z,37.03
2023-01-28T22:45:10.453Z,36.15
2023-01-28T22:47:37.487Z,36.38
2023-01-28T22:50:04.610Z,33.60
2023-01-28T22:52:31.471Z,34.75
2023-01-28T22:54:58.234Z,36.67
2023-01-28T22:57:25.042Z,34.78
2023-01-28T22:59:59.979Z,38.10
2023-01-28T23:05:14.073Z,33.97
2023-01-28T23:07:40.823Z,38.78
2023-01-28T23:10:08.449Z,36.53
2023-01-28T23:12:35.247Z,37.27
2023-01-28T23:15:02.022Z,39.13
2023-01-28T23:17:28.847Z,37.75
2023-01-28T23:19:55.693Z,39.63
2023-01-28T23:22:25.423Z,39.10
2023-01-28T23:24:52.183Z,40.60
2023-01-28T23:27:18.980Z,45.13
2023-01-28T23:29:45.755Z,46.90
2023-01-28T23:32:12.660Z,45.92
2023-01-28T23:34:41.375Z,51.95
2023-01-28T23:37:10.541Z,53.60
2023-01-28T23:39:37.295Z,51.67
2023-01-28T23:42:16.091Z,54.83
2023-01-28T23:44:38.246Z,0
2023-01-28T23:47:10.546Z,58.92
2023-01-28T23:49:37.707Z,49.90
2023-01-28T23:54:32.491Z,52.75
2023-01-28T23:57:00.159Z,60.83
2023-01-28T23:58:45.855Z,0
2023-01-28T23:59:27.181Z,54.10
